createdAt,value
2023-07-30T00:00:50.597Z,23.95
2023-07-30T00:03:18.687Z,23.87
2023-07-30T00:05:56.428Z,23.82
2023-07-30T00:08:24.746Z,23.80
2023-07-30T00:10:52.283Z,23.98
2023-07-30T00:13:19.932Z,23.96
2023-07-30T00:15:48.291Z,23.99
2023-07-30T00:18:16.584Z,24.00
2023-07-30T00:20:44.576Z,24.04
2023-07-30T00:23:12.418Z,23.93
2023-07-30T00:25:39.900Z,23.90
2023-07-30T00:28:07.590Z,23.88
2023-07-30T00:30:35.410Z,23.74
2023-07-30T00:33:03.020Z,23.81
2023-07-30T00:37:58.420Z,23.83
2023-07-30T00:40:25.993Z,23.72
2023-07-30T00:42:53.623Z,23.89
2023-07-30T00:45:21.605Z,23.85
2023-07-30T00:47:49.180Z,24.26
2023-07-30T00:50:19.475Z,23.99
2023-07-30T00:52:47.318Z,23.95
2023-07-30T00:55:15.537Z,23.97
2023-07-30T00:57:44.185Z,24.19
2023-07-30T01:00:12.819Z,23.82
2023-07-30T01:02:45.980Z,24.14
2023-07-30T01:05:14.273Z,24.15
2023-07-30T01:07:41.755Z,24.04
2023-07-30T01:10:09.442Z,24.08
2023-07-30T01:12:37.726Z,24.09
2023-07-30T01:15:07.150Z,24.27
2023-07-30T01:17:35.310Z,24.01
2023-07-30T01:20:04.145Z,24.36
2023-07-30T01:22:31.798Z,24.10
2023-07-30T01:24:59.284Z,24.26
2023-07-30T01:27:33.192Z,24.24
2023-07-30T01:30:14.632Z,24.33
2023-07-30T01:32:43.076Z,24.48
2023-07-30T01:35:11.538Z,24.47
2023-07-30T01:37:40.296Z,24.43
2023-07-30T01:40:09.121Z,24.52
2023-07-30T01:42:36.885Z,24.62
2023-07-30T01:45:05.976Z,24.59
2023-07-30T01:47:34.004Z,24.59
2023-07-30T01:50:01.525Z,24.48
2023-07-30T01:52:29.720Z,24.52
2023-07-30T01:54:59.592Z,24.44
2023-07-30T01:57:27.108Z,24.56
2023-07-30T01:59:54.727Z,24.41
2023-07-30T02:02:22.756Z,24.41
2023-07-30T02:04:50.777Z,24.37
2023-07-30T02:07:18.292Z,24.49
2023-07-30T02:09:46.335Z,24.43
2023-07-30T02:12:14.044Z,24.41
2023-07-30T02:14:41.891Z,24.30
2023-07-30T02:17:09.770Z,24.26
2023-07-30T02:19:37.281Z,24.28
2023-07-30T02:22:05.224Z,24.30
2023-07-30T02:24:34.454Z,24.31
2023-07-30T02:27:02.090Z,24.25
2023-07-30T02:29:29.983Z,24.14
2023-07-30T02:31:58.113Z,24.20
2023-07-30T02:34:25.746Z,24.19
2023-07-30T02:36:53.469Z,24.21
2023-07-30T02:39:21.710Z,24.20
2023-07-30T02:41:49.247Z,24.28
2023-07-30T02:44:17.178Z,24.24
2023-07-30T02:46:45.053Z,24.07
2023-07-30T02:49:12.629Z,24.13
2023-07-30T02:51:40.448Z,24.00
2023-07-30T02:54:08.991Z,24.07
2023-07-30T02:56:36.645Z,24.20
2023-07-30T02:59:04.351Z,24.14
2023-07-30T03:01:32.199Z,23.99
2023-07-30T03:03:59.689Z,23.98
2023-07-30T03:06:27.315Z,24.07
2023-07-30T03:08:55.451Z,24.02
2023-07-30T03:11:23.797Z,24.01
2023-07-30T03:13:51.537Z,23.99
2023-07-30T03:16:19.328Z,24.01
2023-07-30T03:18:46.843Z,23.95
2023-07-30T03:21:14.330Z,23.92
2023-07-30T03:23:44.471Z,23.94
2023-07-30T03:26:12.817Z,23.86
2023-07-30T03:28:41.113Z,23.90
2023-07-30T03:31:09.211Z,23.90
2023-07-30T03:33:36.977Z,23.84
2023-07-30T03:36:04.681Z,23.80
2023-07-30T03:38:32.907Z,24.06
2023-07-30T03:41:00.831Z,23.90
2023-07-30T03:43:28.494Z,23.80
2023-07-30T03:45:56.508Z,23.91
2023-07-30T03:48:24.083Z,24.13
2023-07-30T03:50:51.762Z,23.88
2023-07-30T03:53:19.653Z,23.84
2023-07-30T03:55:47.293Z,23.90
2023-07-30T03:58:15.009Z,23.91
2023-07-30T04:00:43.443Z,23.94
2023-07-30T04:03:11.381Z,23.87
2023-07-30T04:05:38.940Z,23.86
2023-07-30T04:08:07.174Z,23.89
2023-07-30T04:10:35.097Z,23.84
2023-07-30T04:13:03.033Z,24.03
2023-07-30T04:15:30.763Z,24.04
2023-07-30T04:17:58.722Z,24.00
2023-07-30T04:20:26.317Z,24.15
2023-07-30T04:22:55.920Z,24.16
2023-07-30T04:25:23.867Z,24.23
2023-07-30T04:27:51.805Z,24.35
2023-07-30T04:30:20.937Z,24.53
2023-07-30T04:32:49.056Z,24.41
2023-07-30T04:35:16.958Z,24.39
2023-07-30T04:37:44.470Z,24.33
2023-07-30T04:40:12.765Z,24.30
2023-07-30T04:42:40.291Z,24.30
2023-07-30T04:45:08.232Z,24.50
2023-07-30T04:47:36.636Z,24.62
2023-07-30T04:50:04.405Z,24.55
2023-07-30T04:52:32.128Z,24.53
2023-07-30T04:55:00.197Z,24.63
2023-07-30T04:57:28.148Z,24.83
2023-07-30T04:59:55.782Z,24.82
2023-07-30T05:02:23.644Z,24.99
2023-07-30T05:04:51.721Z,25.04
2023-07-30T05:07:19.213Z,25.15
2023-07-30T05:09:47.071Z,25.20
2023-07-30T05:12:14.523Z,25.19
2023-07-30T05:14:41.982Z,25.19
2023-07-30T05:17:09.879Z,25.35
2023-07-30T05:19:37.307Z,25.41
2023-07-30T05:22:06.999Z,25.61
2023-07-30T05:24:35.172Z,25.58
2023-07-30T05:27:02.637Z,25.71
2023-07-30T05:29:30.427Z,25.79
2023-07-30T05:31:58.381Z,25.72
2023-07-30T05:34:25.988Z,25.70
2023-07-30T05:36:53.574Z,25.74
2023-07-30T05:39:21.578Z,25.84
2023-07-30T05:41:49.086Z,25.92
2023-07-30T05:44:16.544Z,25.83
2023-07-30T05:46:49.174Z,25.78
2023-07-30T05:49:16.746Z,25.76
2023-07-30T05:51:44.629Z,25.75
2023-07-30T05:54:13.358Z,25.75
2023-07-30T05:56:40.806Z,25.79
2023-07-30T05:59:08.581Z,25.91
2023-07-30T06:01:36.541Z,25.93
2023-07-30T06:04:07.814Z,26.07
2023-07-30T06:06:35.335Z,26.25
2023-07-30T06:09:02.935Z,26.00
2023-07-30T06:11:30.832Z,25.96
2023-07-30T06:13:58.421Z,25.83
2023-07-30T06:16:26.034Z,26.11
2023-07-30T06:18:53.966Z,25.92
2023-07-30T06:21:21.636Z,26.09
2023-07-30T06:23:49.152Z,26.16
2023-07-30T06:26:16.915Z,26.40
2023-07-30T06:28:44.395Z,26.36
2023-07-30T06:31:11.940Z,26.20
2023-07-30T06:33:40.070Z,26.30
2023-07-30T06:36:07.695Z,26.62
2023-07-30T06:38:38.124Z,26.66
2023-07-30T06:41:06.344Z,26.52
2023-07-30T06:43:33.770Z,26.57
2023-07-30T06:46:01.367Z,26.64
2023-07-30T06:48:32.392Z,26.63
2023-07-30T06:51:00.289Z,26.78
2023-07-30T06:53:27.952Z,26.69
2023-07-30T06:55:55.758Z,26.79
2023-07-30T06:58:23.281Z,26.61
2023-07-30T07:00:50.761Z,26.55
2023-07-30T07:03:19.048Z,26.36
2023-07-30T07:05:54.259Z,26.19
2023-07-30T07:08:22.691Z,26.09
2023-07-30T07:10:50.641Z,26.01
2023-07-30T07:13:25.535Z,25.76
2023-07-30T07:22:56.316Z,25.83
2023-07-30T07:25:25.240Z,25.59
2023-07-30T07:28:11.796Z,25.61
2023-07-30T07:30:53.496Z,25.54
2023-07-30T07:33:39.107Z,25.54
2023-07-30T07:36:30.312Z,25.46
2023-07-30T07:39:04.476Z,25.70
2023-07-30T07:41:32.895Z,25.53
2023-07-30T07:44:00.633Z,25.74
2023-07-30T07:46:29.790Z,25.94
2023-07-30T07:49:08.179Z,26.01
2023-07-30T07:51:38.841Z,25.95
2023-07-30T07:54:08.142Z,25.81
2023-07-30T07:56:35.876Z,25.22
2023-07-30T07:59:17.241Z,25.33
2023-07-30T08:01:45.244Z,25.18
2023-07-30T08:04:13.419Z,25.17
2023-07-30T08:06:41.198Z,25.14
2023-07-30T08:09:08.741Z,25.00
2023-07-30T08:11:39.365Z,24.85
2023-07-30T08:14:07.297Z,24.86
2023-07-30T08:16:35.192Z,24.93
2023-07-30T08:19:03.672Z,24.83
2023-07-30T08:21:31.202Z,24.88
2023-07-30T08:23:58.857Z,24.78
2023-07-30T08:26:26.705Z,24.61
2023-07-30T08:28:54.373Z,24.70
2023-07-30T08:31:22.071Z,24.65
2023-07-30T08:33:50.042Z,24.63
2023-07-30T08:36:17.606Z,24.52
2023-07-30T08:38:45.089Z,24.60
2023-07-30T08:41:13.445Z,24.64
2023-07-30T08:43:41.181Z,24.56
2023-07-30T08:46:10.609Z,24.55
2023-07-30T08:52:43.779Z,24.61
2023-07-30T08:55:12.323Z,24.48
2023-07-30T08:57:41.088Z,24.54
2023-07-30T09:00:10.502Z,24.54
2023-07-30T09:02:49.543Z,24.64
2023-07-30T09:05:17.340Z,24.61
2023-07-30T09:07:45.831Z,24.56
2023-07-30T09:10:14.100Z,24.84
2023-07-30T09:12:41.814Z,24.76
2023-07-30T09:15:09.991Z,24.81
2023-07-30T09:17:39.288Z,24.85
2023-07-30T09:20:07.671Z,25.04
2023-07-30T09:22:42.052Z,25.08
2023-07-30T09:25:10.187Z,25.11
2023-07-30T09:27:38.553Z,24.85
2023-07-30T09:30:07.217Z,24.86
2023-07-30T09:32:36.416Z,25.05
2023-07-30T09:35:08.411Z,25.03
2023-07-30T09:37:41.131Z,25.12
2023-07-30T09:40:11.361Z,25.15
2023-07-30T09:42:41.880Z,25.34
2023-07-30T09:45:17.899Z,25.33
2023-07-30T09:47:49.467Z,25.31
2023-07-30T09:50:17.490Z,25.28
2023-07-30T09:52:45.852Z,25.36
2023-07-30T09:55:13.663Z,25.38
2023-07-30T09:57:41.556Z,25.33
2023-07-30T10:00:10.288Z,25.33
2023-07-30T10:02:44.360Z,25.20
2023-07-30T10:05:15.967Z,25.32
2023-07-30T10:07:59.352Z,25.29
2023-07-30T10:10:29.004Z,25.09
2023-07-30T10:13:00.443Z,25.41
2023-07-30T10:15:28.170Z,25.62
2023-07-30T10:17:59.497Z,25.38
2023-07-30T10:20:30.510Z,25.10
2023-07-30T10:22:59.813Z,25.26
2023-07-30T10:25:31.836Z,25.17
2023-07-30T10:27:59.919Z,25.35
2023-07-30T10:30:32.296Z,25.08
2023-07-30T10:33:01.555Z,25.12
2023-07-30T10:35:39.974Z,25.18
2023-07-30T10:38:18.085Z,25.44
2023-07-30T10:41:02.377Z,25.14
2023-07-30T10:43:38.469Z,24.94
2023-07-30T10:46:06.955Z,24.97
2023-07-30T10:48:36.751Z,25.23
2023-07-30T10:51:06.491Z,25.12
2023-07-30T10:53:36.954Z,25.15
2023-07-30T10:56:05.531Z,25.28
2023-07-30T10:58:36.201Z,25.20
2023-07-30T11:01:05.454Z,25.23
2023-07-30T11:03:33.975Z,25.30
2023-07-30T11:06:02.596Z,25.38
2023-07-30T11:08:37.672Z,25.37
2023-07-30T11:11:06.632Z,25.67
2023-07-30T11:13:39.007Z,25.33
2023-07-30T11:16:07.709Z,25.21
2023-07-30T11:18:36.744Z,25.22
2023-07-30T11:21:11.598Z,25.30
2023-07-30T11:23:42.720Z,25.37
2023-07-30T11:26:16.139Z,25.52
2023-07-30T11:28:44.399Z,25.64
2023-07-30T11:31:12.981Z,25.46
2023-07-30T11:33:48.160Z,25.47
2023-07-30T11:36:23.764Z,25.63
2023-07-30T11:38:54.196Z,25.53
2023-07-30T11:41:24.412Z,25.24
2023-07-30T11:43:52.979Z,25.33
2023-07-30T11:46:24.074Z,25.15
2023-07-30T11:48:54.649Z,25.38
2023-07-30T11:51:30.092Z,25.51
2023-07-30T11:54:02.693Z,24.93
2023-07-30T11:56:31.580Z,24.89
2023-07-30T11:59:06.308Z,25.01
2023-07-30T12:01:36.687Z,25.42
2023-07-30T12:04:07.347Z,24.93
2023-07-30T12:06:45.267Z,25.18
2023-07-30T12:09:20.116Z,25.10
2023-07-30T12:11:52.930Z,24.89
2023-07-30T12:14:23.906Z,24.55
2023-07-30T12:16:51.376Z,24.40
2023-07-30T12:19:19.027Z,24.40
2023-07-30T12:21:46.993Z,24.51
2023-07-30T12:24:15.151Z,24.74
2023-07-30T12:26:42.625Z,24.81
2023-07-30T12:29:10.733Z,24.72
2023-07-30T12:31:38.709Z,24.64
2023-07-30T12:34:06.736Z,24.89
2023-07-30T12:36:34.779Z,25.11
2023-07-30T12:39:02.386Z,24.27
2023-07-30T12:41:30.042Z,24.67
2023-07-30T12:43:58.489Z,24.45
2023-07-30T12:46:31.073Z,24.75
2023-07-30T12:49:05.451Z,24.87
2023-07-30T12:51:33.889Z,25.19
2023-07-30T12:54:02.248Z,25.17
2023-07-30T12:56:29.911Z,25.39
2023-07-30T12:58:57.489Z,25.39
2023-07-30T13:01:25.468Z,25.44
2023-07-30T13:03:55.732Z,25.70
2023-07-30T13:06:23.737Z,25.32
2023-07-30T13:08:51.807Z,25.81
2023-07-30T13:11:19.386Z,26.03
2023-07-30T13:13:47.055Z,25.74
2023-07-30T13:16:15.045Z,25.88
2023-07-30T13:18:42.575Z,26.17
2023-07-30T13:21:10.104Z,25.90
2023-07-30T13:23:37.879Z,25.69
2023-07-30T13:26:05.402Z,25.32
2023-07-30T13:28:32.943Z,25.44
2023-07-30T13:31:00.975Z,25.73
2023-07-30T13:33:28.664Z,25.91
2023-07-30T13:35:56.206Z,26.06
2023-07-30T13:38:26.482Z,26.30
2023-07-30T13:40:54.438Z,26.05
2023-07-30T13:43:22.320Z,26.18
2023-07-30T13:45:51.446Z,26.32
2023-07-30T13:48:21.114Z,25.92
2023-07-30T13:50:48.750Z,26.03
2023-07-30T13:53:16.638Z,26.16
2023-07-30T13:55:44.496Z,26.48
2023-07-30T13:58:12.766Z,26.16
2023-07-30T14:00:43.421Z,26.12
2023-07-30T14:03:12.901Z,26.65
2023-07-30T14:05:40.530Z,26.88
2023-07-30T14:08:08.170Z,26.89
2023-07-30T14:10:36.077Z,26.85
2023-07-30T14:13:03.603Z,26.99
2023-07-30T14:15:32.639Z,26.64
2023-07-30T14:18:00.510Z,27.02
2023-07-30T14:20:28.153Z,27.37
2023-07-30T14:22:55.939Z,27.34
2023-07-30T14:25:24.041Z,27.17
2023-07-30T14:27:51.711Z,27.33
2023-07-30T14:30:19.543Z,26.79
2023-07-30T14:32:47.702Z,26.78
2023-07-30T14:35:15.560Z,26.95
2023-07-30T14:37:43.095Z,27.37
2023-07-30T14:40:12.503Z,27.33
2023-07-30T14:42:41.237Z,27.73
2023-07-30T14:45:09.557Z,27.65
2023-07-30T14:47:37.475Z,27.19
2023-07-30T14:50:06.158Z,27.10
2023-07-30T14:52:33.978Z,27.48
2023-07-30T14:55:01.854Z,27.40
2023-07-30T14:57:29.393Z,27.33
2023-07-30T14:59:56.884Z,27.59
2023-07-30T15:02:24.833Z,27.46
2023-07-30T15:04:52.667Z,27.63
2023-07-30T15:07:20.220Z,27.67
2023-07-30T15:09:48.201Z,27.34
2023-07-30T15:12:15.757Z,27.50
2023-07-30T15:14:43.378Z,27.96
2023-07-30T15:17:11.242Z,28.13
2023-07-30T15:19:40.753Z,27.88
2023-07-30T15:22:08.395Z,27.55
2023-07-30T15:24:38.467Z,27.50
2023-07-30T15:27:07.318Z,27.36
2023-07-30T15:29:34.831Z,27.51
2023-07-30T15:32:03.446Z,27.34
2023-07-30T15:34:31.031Z,27.61
2023-07-30T15:37:00.337Z,27.95
2023-07-30T15:39:28.282Z,27.45
2023-07-30T15:41:55.796Z,27.87
2023-07-30T15:44:23.391Z,27.78
2023-07-30T15:46:51.540Z,27.63
2023-07-30T15:49:20.842Z,27.27
2023-07-30T15:51:48.471Z,27.06
2023-07-30T15:54:16.956Z,27.27
2023-07-30T15:56:44.499Z,27.50
2023-07-30T15:59:12.174Z,27.37
2023-07-30T16:01:40.573Z,27.35
2023-07-30T16:04:08.744Z,27.64
2023-07-30T16:06:36.702Z,27.77
2023-07-30T16:09:04.518Z,27.84
2023-07-30T16:11:34.588Z,26.93
2023-07-30T16:14:02.182Z,27.31
2023-07-30T16:16:29.885Z,27.35
2023-07-30T16:18:59.042Z,27.27
2023-07-30T16:21:27.093Z,27.34
2023-07-30T16:23:54.783Z,27.29
2023-07-30T16:26:23.029Z,27.01
2023-07-30T16:28:50.705Z,27.15
2023-07-30T16:31:18.353Z,26.85
2023-07-30T16:33:46.458Z,26.46
2023-07-30T16:36:14.027Z,26.67
2023-07-30T16:38:41.787Z,26.75
2023-07-30T16:41:10.514Z,26.79
2023-07-30T16:43:38.122Z,26.57
2023-07-30T16:46:05.757Z,26.62
2023-07-30T16:48:33.836Z,26.70
2023-07-30T16:51:01.503Z,26.73
2023-07-30T16:53:29.341Z,26.80
2023-07-30T16:55:57.499Z,26.78
2023-07-30T16:58:25.563Z,26.79
2023-07-30T17:01:04.864Z,26.69
2023-07-30T17:03:34.946Z,26.79
2023-07-30T17:06:03.115Z,26.71
2023-07-30T17:08:31.073Z,26.68
2023-07-30T17:11:04.626Z,26.58
2023-07-30T17:13:32.227Z,26.60
2023-07-30T17:16:05.657Z,26.51
2023-07-30T17:18:33.366Z,26.53
2023-07-30T17:21:01.959Z,26.45
2023-07-30T17:23:29.673Z,26.38
2023-07-30T17:25:59.589Z,26.39
2023-07-30T17:28:30.070Z,26.55
2023-07-30T17:30:58.067Z,26.49
2023-07-30T17:33:26.026Z,26.48
2023-07-30T17:35:54.140Z,26.42
2023-07-30T17:38:21.939Z,26.30
2023-07-30T17:40:56.418Z,26.38
2023-07-30T17:43:25.060Z,26.36
2023-07-30T17:45:52.761Z,26.23
2023-07-30T17:48:20.423Z,26.30
2023-07-30T17:50:49.389Z,26.34
2023-07-30T17:53:19.181Z,26.36
2023-07-30T17:55:47.610Z,26.32
2023-07-30T17:58:15.528Z,26.10
2023-07-30T18:00:48.589Z,26.11
2023-07-30T18:03:16.928Z,26.21
2023-07-30T18:05:49.097Z,26.13
2023-07-30T18:08:18.237Z,25.98
2023-07-30T18:10:48.028Z,25.91
2023-07-30T18:13:16.632Z,25.90
2023-07-30T18:15:45.478Z,26.10
2023-07-30T18:18:14.735Z,25.92
2023-07-30T18:20:42.839Z,25.83
2023-07-30T18:23:10.817Z,26.18
2023-07-30T18:25:38.447Z,25.69
2023-07-30T18:28:06.962Z,25.57
2023-07-30T18:30:36.788Z,25.88
2023-07-30T18:33:07.586Z,25.93
2023-07-30T18:35:38.664Z,25.58
2023-07-30T18:38:06.291Z,25.53
2023-07-30T18:40:37.812Z,25.47
2023-07-30T18:43:06.853Z,25.38
2023-07-30T18:45:35.589Z,25.34
2023-07-30T18:48:03.987Z,25.39
2023-07-30T18:50:32.856Z,25.42
2023-07-30T18:53:02.662Z,25.39
2023-07-30T18:55:30.210Z,25.26
2023-07-30T18:57:58.309Z,25.08
2023-07-30T19:00:25.909Z,25.09
2023-07-30T19:02:55.610Z,25.14
2023-07-30T19:05:23.667Z,25.15
2023-07-30T19:07:51.285Z,24.87
2023-07-30T19:10:20.562Z,24.86
2023-07-30T19:12:48.556Z,24.88
2023-07-30T19:15:16.391Z,24.84
2023-07-30T19:17:44.000Z,24.85
2023-07-30T19:20:12.188Z,24.78
2023-07-30T19:22:39.719Z,24.85
2023-07-30T19:25:07.882Z,24.94
2023-07-30T19:27:35.801Z,24.59
2023-07-30T19:30:03.603Z,24.69
2023-07-30T19:32:31.621Z,24.61
2023-07-30T19:34:59.510Z,24.44
2023-07-30T19:37:26.991Z,24.59
2023-07-30T19:39:56.889Z,24.65
2023-07-30T19:42:24.887Z,24.61
2023-07-30T19:44:52.824Z,24.72
2023-07-30T19:47:23.787Z,24.64
2023-07-30T19:49:52.333Z,24.68
2023-07-30T19:52:20.413Z,24.57
2023-07-30T19:54:47.967Z,24.50
2023-07-30T19:57:15.863Z,24.59
2023-07-30T19:59:43.370Z,24.28
2023-07-30T20:02:10.955Z,24.49
2023-07-30T20:04:39.393Z,24.40
2023-07-30T20:07:07.054Z,24.59
2023-07-30T20:09:34.585Z,24.52
2023-07-30T20:12:02.488Z,24.79
2023-07-30T20:14:30.206Z,24.53
2023-07-30T20:16:57.852Z,24.22
2023-07-30T20:19:25.704Z,24.31
2023-07-30T20:21:54.002Z,24.17
2023-07-30T20:24:21.746Z,24.05
2023-07-30T20:26:49.867Z,24.22
2023-07-30T20:29:19.277Z,24.34
2023-07-30T20:31:46.852Z,24.42
2023-07-30T20:34:14.777Z,24.41
2023-07-30T20:36:42.469Z,24.39
2023-07-30T20:39:10.131Z,24.29
2023-07-30T20:41:38.065Z,24.20
2023-07-30T20:44:05.608Z,24.16
2023-07-30T20:46:33.209Z,24.10
2023-07-30T20:49:01.104Z,24.10
2023-07-30T20:51:29.639Z,24.05
2023-07-30T20:53:57.159Z,24.00
2023-07-30T20:56:25.259Z,24.08
2023-07-30T20:58:53.070Z,23.95
2023-07-30T21:01:20.617Z,24.07
2023-07-30T21:03:48.574Z,23.93
2023-07-30T21:06:16.156Z,23.99
2023-07-30T21:08:46.114Z,23.94
2023-07-30T21:11:13.967Z,23.96
2023-07-30T21:13:41.490Z,23.82
2023-07-30T21:16:09.055Z,23.76
2023-07-30T21:18:36.940Z,23.69
2023-07-30T21:21:04.511Z,23.64
2023-07-30T21:23:32.313Z,23.63
2023-07-30T21:26:01.430Z,23.64
2023-07-30T21:28:28.976Z,23.61
2023-07-30T21:31:06.858Z,23.69
2023-07-30T21:33:36.217Z,23.51
2023-07-30T21:36:05.175Z,23.52
2023-07-30T21:38:32.912Z,23.55
2023-07-30T21:41:00.926Z,23.39
2023-07-30T21:43:32.221Z,23.43
2023-07-30T21:46:00.892Z,23.49
2023-07-30T21:48:28.799Z,23.47
2023-07-30T21:51:05.862Z,23.43
2023-07-30T21:53:33.654Z,23.36
2023-07-30T21:56:02.824Z,23.24
2023-07-30T21:58:30.451Z,23.24
2023-07-30T22:00:59.354Z,23.12
2023-07-30T22:03:27.927Z,23.24
2023-07-30T22:05:55.933Z,22.85
2023-07-30T22:08:23.528Z,22.98
2023-07-30T22:10:51.473Z,22.96
2023-07-30T22:13:19.692Z,22.96
2023-07-30T22:15:47.968Z,22.85
2023-07-30T22:18:16.383Z,22.83
2023-07-30T22:20:44.208Z,22.90
2023-07-30T22:23:11.900Z,22.90
2023-07-30T22:25:39.643Z,22.64
2023-07-30T22:28:10.077Z,22.70
2023-07-30T22:30:41.838Z,22.70
2023-07-30T22:33:10.732Z,22.75
2023-07-30T22:35:38.392Z,22.72
2023-07-30T22:38:06.215Z,22.77
2023-07-30T22:40:34.151Z,22.70
2023-07-30T22:43:01.824Z,22.69
2023-07-30T22:45:29.444Z,22.57
2023-07-30T22:47:57.524Z,22.77
2023-07-30T22:50:25.242Z,22.65
2023-07-30T22:52:52.719Z,22.70
2023-07-30T22:55:20.625Z,22.67
2023-07-30T22:57:48.278Z,22.77
2023-07-30T23:00:15.780Z,22.72
2023-07-30T23:02:56.466Z,22.68
2023-07-30T23:05:24.174Z,22.58
2023-07-30T23:07:52.140Z,22.56
2023-07-30T23:10:21.127Z,22.74
2023-07-30T23:12:48.651Z,22.52
2023-07-30T23:15:16.697Z,22.52
2023-07-30T23:17:44.319Z,22.51
2023-07-30T23:20:12.066Z,22.48
2023-07-30T23:22:39.935Z,22.52
2023-07-30T23:25:07.854Z,22.51
2023-07-30T23:27:35.312Z,22.33
2023-07-30T23:30:03.188Z,22.42
2023-07-30T23:32:30.737Z,22.35
2023-07-30T23:34:58.267Z,22.39
2023-07-30T23:37:26.833Z,22.52
2023-07-30T23:39:54.442Z,22.57
2023-07-30T23:42:21.945Z,22.55
2023-07-30T23:44:49.810Z,22.69
2023-07-30T23:47:18.470Z,23.04
2023-07-30T23:49:46.101Z,22.84
2023-07-30T23:52:14.113Z,22.86
2023-07-30T23:54:41.754Z,22.70
2023-07-30T23:57:09.715Z,22.66
2023-07-30T23:59:37.733Z,22.52
